createdAt,value
2017-04-22T00:00:25.433Z,1016.27
2017-04-22T00:01:26.646Z,1016.25
2017-04-22T00:02:27.897Z,1016.3
2017-04-22T00:03:29.150Z,1016.25
2017-04-22T00:04:30.491Z,1016.25
2017-04-22T00:05:31.793Z,1016.27
2017-04-22T00:06:33.099Z,1016.21
2017-04-22T00:07:34.342Z,1016.23
2017-04-22T00:08:35.577Z,1016.23
2017-04-22T00:09:36.874Z,1016.23
2017-04-22T00:10:38.107Z,1016.14
2017-04-22T00:11:39.408Z,1016.14
2017-04-22T00:12:40.785Z,1016.17
2017-04-22T00:13:42.005Z,1016.13
2017-04-22T00:14:43.261Z,1016.14
2017-04-22T00:15:44.528Z,1016.14
2017-04-22T00:16:45.766Z,1016.15
2017-04-22T00:17:47.006Z,1016.1
2017-04-22T00:18:48.251Z,1016.11
2017-04-22T00:19:49.512Z,1016.09
2017-04-22T00:20:50.759Z,1016.08
2017-04-22T00:21:52.030Z,1016.04
2017-04-22T00:22:53.271Z,1016.04
2017-04-22T00:23:54.508Z,1016.07
2017-04-22T00:24:55.808Z,1016.07
2017-04-22T00:25:57.061Z,1016.08
2017-04-22T00:26:58.306Z,1016.06
2017-04-22T00:27:59.544Z,1016.06
2017-04-22T00:29:00.787Z,1016.06
2017-04-22T00:30:02.011Z,1016.04
2017-04-22T00:31:03.274Z,1016.02
2017-04-22T00:32:04.609Z,1015.99
2017-04-22T00:33:05.752Z,1016.01
2017-04-22T00:34:07.029Z,1016.08
2017-04-22T00:35:08.259Z,1016.01
2017-04-22T00:36:09.597Z,1016.03
2017-04-22T00:37:10.862Z,1016.06
2017-04-22T00:38:12.088Z,1016.06
2017-04-22T00:39:13.333Z,1016.07
2017-04-22T00:40:14.569Z,1016.11
2017-04-22T00:41:15.906Z,1016.15
2017-04-22T00:42:17.149Z,1016.13
2017-04-22T00:43:18.482Z,1016.15
2017-04-22T00:44:19.779Z,1016.12
2017-04-22T00:45:21.032Z,1016.19
2017-04-22T00:46:22.267Z,1016.16
2017-04-22T00:47:23.510Z,1016.26
2017-04-22T00:48:24.753Z,1016.2
2017-04-22T00:49:26.088Z,1016.21
2017-04-22T00:50:27.337Z,1016.25
2017-04-22T00:51:28.621Z,1016.21
2017-04-22T00:52:29.862Z,1016.3
2017-04-22T00:53:31.076Z,1016.26
2017-04-22T00:54:32.459Z,1016.27
2017-04-22T00:55:33.724Z,1016.28
2017-04-22T00:56:35.038Z,1016.28
2017-04-22T00:57:36.265Z,1016.25
2017-04-22T00:58:37.494Z,1016.25
2017-04-22T00:59:38.732Z,1016.32
2017-04-22T01:00:39.965Z,1016.27
2017-04-22T01:01:41.318Z,1016.29
2017-04-22T01:02:42.561Z,1016.35
2017-04-22T01:03:43.796Z,1016.36
2017-04-22T01:04:45.145Z,1016.36
2017-04-22T01:05:46.375Z,1016.3
2017-04-22T01:06:47.635Z,1016.31
2017-04-22T01:07:48.903Z,1016.2
2017-04-22T01:08:50.129Z,1016.28
2017-04-22T01:09:51.392Z,1016.26
2017-04-22T01:10:52.633Z,1016.21
2017-04-22T01:11:53.881Z,1016.13
2017-04-22T01:12:55.210Z,1016.16
2017-04-22T01:13:56.465Z,1016.11
2017-04-22T01:14:57.895Z,1016.18
2017-04-22T01:15:59.149Z,1016.19
2017-04-22T01:17:00.394Z,1016.21
2017-04-22T01:18:01.643Z,1016.21
2017-04-22T01:19:02.882Z,1016.2
2017-04-22T01:20:04.132Z,1016.18
2017-04-22T01:21:05.427Z,1016.16
2017-04-22T01:22:06.817Z,1016.19
2017-04-22T01:23:08.047Z,1016.18
2017-04-22T01:24:09.289Z,1016.19
2017-04-22T01:25:10.542Z,1016.24
2017-04-22T01:26:11.772Z,1016.21
2017-04-22T01:27:13.049Z,1016.24
2017-04-22T01:28:14.285Z,1016.21
2017-04-22T01:29:15.546Z,1016.25
2017-04-22T01:30:16.796Z,1016.22
2017-04-22T01:31:18.014Z,1016.23
2017-04-22T01:32:19.260Z,1016.23
2017-04-22T01:33:20.530Z,1016.26
2017-04-22T01:34:21.754Z,1016.21
2017-04-22T01:35:22.964Z,1016.22
2017-04-22T01:36:24.214Z,1016.24
2017-04-22T01:37:25.439Z,1016.25
2017-04-22T01:38:26.693Z,1016.22
2017-04-22T01:39:27.919Z,1016.2
2017-04-22T01:40:29.157Z,1016.18
2017-04-22T01:41:30.394Z,1016.13
2017-04-22T01:42:31.635Z,1016.07
2017-04-22T01:43:32.936Z,1016.04
2017-04-22T01:44:34.192Z,1016.03
2017-04-22T01:45:35.466Z,1016.07
2017-04-22T01:46:36.720Z,1016.06
2017-04-22T01:47:37.952Z,1016.02
2017-04-22T01:48:39.317Z,1016.01
2017-04-22T01:49:40.533Z,1016.1
2017-04-22T01:50:41.837Z,1016.12
2017-04-22T01:51:43.155Z,1016.11
2017-04-22T01:52:44.391Z,1016.11
2017-04-22T01:53:45.700Z,1016.12
2017-04-22T01:54:46.955Z,1016.15
2017-04-22T01:55:48.206Z,1016.14
2017-04-22T01:56:49.460Z,1016.15
2017-04-22T01:57:50.676Z,1016.16
2017-04-22T01:58:51.998Z,1016.22
2017-04-22T01:59:53.261Z,1016.24
2017-04-22T02:00:54.472Z,1016.18
2017-04-22T02:01:55.715Z,1016.21
2017-04-22T02:02:56.957Z,1016.19
2017-04-22T02:03:58.265Z,1016.19
2017-04-22T02:04:59.572Z,1016.23
2017-04-22T02:06:00.862Z,1016.19
2017-04-22T02:07:02.144Z,1016.23
2017-04-22T02:08:03.363Z,1016.22
2017-04-22T02:09:04.613Z,1016.14
2017-04-22T02:10:05.823Z,1016.22
2017-04-22T02:11:07.078Z,1016.21
2017-04-22T02:12:08.347Z,1016.2
2017-04-22T02:13:09.536Z,1016.21
2017-04-22T02:14:10.773Z,1016.2
2017-04-22T02:15:12.020Z,1016.21
2017-04-22T02:16:13.386Z,1016.21
2017-04-22T02:17:14.514Z,1016.15
2017-04-22T02:18:15.757Z,1016.18
2017-04-22T02:19:17.053Z,1016.15
2017-04-22T02:20:18.269Z,1016.22
2017-04-22T02:21:19.532Z,1016.17
2017-04-22T02:22:20.819Z,1016.18
2017-04-22T02:23:22.032Z,1016.18
2017-04-22T02:24:23.327Z,1016.2
2017-04-22T02:25:24.653Z,1016.19
2017-04-22T02:26:25.863Z,1016.11
2017-04-22T02:27:27.242Z,1016.13
2017-04-22T02:28:28.479Z,1016.09
2017-04-22T02:29:29.827Z,1016.1
2017-04-22T02:30:31.095Z,1016.08
2017-04-22T02:31:32.326Z,1016.1
2017-04-22T02:32:33.569Z,1016.09
2017-04-22T02:33:34.851Z,1016.12
2017-04-22T02:34:36.168Z,1016.08
2017-04-22T02:35:37.425Z,1016.03
2017-04-22T02:36:38.851Z,1015.98
2017-04-22T02:37:40.014Z,1016.01
2017-04-22T02:38:41.278Z,1015.96
2017-04-22T02:39:42.503Z,1016.03
2017-04-22T02:40:43.756Z,1016.05
2017-04-22T02:41:45.147Z,1016.05
2017-04-22T02:42:46.270Z,1016.02
2017-04-22T02:43:47.667Z,1016.01
2017-04-22T02:44:48.878Z,1016.02
2017-04-22T02:45:50.125Z,1016
2017-04-22T02:46:51.384Z,1016.01
2017-04-22T02:47:52.649Z,1016.02
2017-04-22T02:48:53.949Z,1015.97
2017-04-22T02:49:55.165Z,1016
2017-04-22T02:50:56.421Z,1015.96
2017-04-22T02:51:57.639Z,1015.98
2017-04-22T02:52:58.877Z,1015.94
2017-04-22T02:54:00.116Z,1015.92
2017-04-22T02:55:01.402Z,1015.96
2017-04-22T02:56:02.657Z,1015.95
2017-04-22T02:57:03.888Z,1015.96
2017-04-22T02:58:05.181Z,1015.91
2017-04-22T02:59:06.426Z,1015.92
2017-04-22T03:00:07.663Z,1015.93
2017-04-22T03:01:08.913Z,1015.93
2017-04-22T03:02:10.165Z,1015.93
2017-04-22T03:03:11.353Z,1015.95
2017-04-22T03:04:12.693Z,1015.91
2017-04-22T03:05:13.932Z,1015.95
2017-04-22T03:06:15.169Z,1015.96
2017-04-22T03:07:16.412Z,1015.91
2017-04-22T03:08:17.650Z,1015.88
2017-04-22T03:09:18.957Z,1015.92
2017-04-22T03:10:20.179Z,1015.94
2017-04-22T03:11:21.420Z,1015.95
2017-04-22T03:12:22.656Z,1015.97
2017-04-22T03:13:23.915Z,1015.94
2017-04-22T03:14:25.245Z,1015.93
2017-04-22T03:15:26.611Z,1015.92
2017-04-22T03:16:27.727Z,1015.91
2017-04-22T03:17:29.036Z,1015.93
2017-04-22T03:18:30.290Z,1015.92
2017-04-22T03:19:31.583Z,1015.9
2017-04-22T03:20:32.918Z,1015.91
2017-04-22T03:21:34.168Z,1015.94
2017-04-22T03:22:35.438Z,1015.92
2017-04-22T03:23:36.667Z,1015.94
2017-04-22T03:24:37.902Z,1015.94
2017-04-22T03:25:39.133Z,1015.9
2017-04-22T03:26:40.362Z,1015.92
2017-04-22T03:27:41.617Z,1015.96
2017-04-22T03:28:42.877Z,1015.92
2017-04-22T03:29:44.181Z,1015.97
2017-04-22T03:30:45.398Z,1015.95
2017-04-22T03:31:46.684Z,1015.99
2017-04-22T03:32:47.950Z,1015.97
2017-04-22T03:33:49.179Z,1015.97
2017-04-22T03:34:50.467Z,1016.02
2017-04-22T03:35:51.708Z,1015.98
2017-04-22T03:36:52.956Z,1015.99
2017-04-22T03:37:54.207Z,1016
2017-04-22T03:38:55.441Z,1015.97
2017-04-22T03:39:56.676Z,1015.98
2017-04-22T03:40:57.981Z,1015.96
2017-04-22T03:41:59.221Z,1015.99
2017-04-22T03:43:00.473Z,1015.99
2017-04-22T03:44:01.720Z,1016.04
2017-04-22T03:45:02.980Z,1016.02
2017-04-22T03:46:04.197Z,1016.04
2017-04-22T03:47:05.540Z,1016.04
2017-04-22T03:48:06.802Z,1015.98
2017-04-22T03:49:08.019Z,1015.93
2017-04-22T03:50:09.266Z,1015.94
2017-04-22T03:51:10.501Z,1015.94
2017-04-22T03:52:11.790Z,1015.98
2017-04-22T03:53:13.058Z,1015.99
2017-04-22T03:54:14.321Z,1015.92
2017-04-22T03:55:15.593Z,1015.88
2017-04-22T03:56:16.853Z,1015.9
2017-04-22T03:57:18.094Z,1015.92
2017-04-22T03:58:19.390Z,1015.9
2017-04-22T03:59:20.651Z,1015.93
2017-04-22T04:00:21.898Z,1015.92
2017-04-22T04:01:23.175Z,1015.88
2017-04-22T04:02:24.439Z,1015.91
2017-04-22T04:03:25.667Z,1015.86
2017-04-22T04:04:26.948Z,1015.85
2017-04-22T04:05:28.144Z,1015.83
2017-04-22T04:06:29.454Z,1015.84
2017-04-22T04:07:30.901Z,1015.88
2017-04-22T04:08:32.107Z,1015.9
2017-04-22T04:09:33.343Z,1015.91
2017-04-22T04:10:34.628Z,1015.91
2017-04-22T04:11:35.883Z,1015.92
2017-04-22T04:12:37.127Z,1015.91
2017-04-22T04:13:38.353Z,1015.89
2017-04-22T04:14:39.590Z,1015.89
2017-04-22T04:15:40.842Z,1015.91
2017-04-22T04:16:42.068Z,1015.91
2017-04-22T04:17:43.342Z,1015.91
2017-04-22T04:18:44.576Z,1015.9
2017-04-22T04:19:45.844Z,1015.9
2017-04-22T04:20:47.284Z,1015.92
2017-04-22T04:21:48.526Z,1015.92
2017-04-22T04:22:49.759Z,1015.89
2017-04-22T04:23:51.135Z,1015.88
2017-04-22T04:24:52.372Z,1015.9
2017-04-22T04:25:53.618Z,1015.94
2017-04-22T04:26:54.875Z,1015.97
2017-04-22T04:27:56.143Z,1015.98
2017-04-22T04:28:57.479Z,1016.01
2017-04-22T04:29:58.716Z,1016.05
2017-04-22T04:31:00.079Z,1016.03
2017-04-22T04:32:01.367Z,1016.04
2017-04-22T04:33:02.607Z,1016.03
2017-04-22T04:34:03.822Z,1015.99
2017-04-22T04:35:05.053Z,1015.97
2017-04-22T04:36:06.288Z,1016.01
2017-04-22T04:37:07.557Z,1016
2017-04-22T04:38:08.796Z,1016.01
2017-04-22T04:39:10.031Z,1016.06
2017-04-22T04:40:11.268Z,1016.06
2017-04-22T04:41:12.537Z,1016.06
2017-04-22T04:42:13.842Z,1016.07
2017-04-22T04:43:15.143Z,1016.09
2017-04-22T04:44:16.393Z,1016.08
2017-04-22T04:45:17.623Z,1016.14
2017-04-22T04:46:18.862Z,1016.07
2017-04-22T04:47:20.103Z,1016.14
2017-04-22T04:48:21.352Z,1016.14
2017-04-22T04:49:22.634Z,1016.15
2017-04-22T04:50:23.852Z,1016.13
2017-04-22T04:51:25.112Z,1016.14
2017-04-22T04:52:26.357Z,1016.18
2017-04-22T04:53:27.608Z,1016.25
2017-04-22T04:54:28.872Z,1016.25
2017-04-22T04:55:30.164Z,1016.21
2017-04-22T04:56:31.383Z,1016.25
2017-04-22T04:57:32.621Z,1016.19
2017-04-22T04:58:33.867Z,1016.25
2017-04-22T04:59:35.090Z,1016.25
2017-04-22T05:00:36.335Z,1016.24
2017-04-22T05:01:37.568Z,1016.27
2017-04-22T05:02:38.809Z,1016.26
2017-04-22T05:03:40.084Z,1016.32
2017-04-22T05:04:41.489Z,1016.32
2017-04-22T05:05:42.730Z,1016.32
2017-04-22T05:06:44.025Z,1016.31
2017-04-22T05:07:45.364Z,1016.31
2017-04-22T05:08:46.573Z,1016.34
2017-04-22T05:09:47.875Z,1016.33
2017-04-22T05:10:49.156Z,1016.34
2017-04-22T05:11:50.384Z,1016.41
2017-04-22T05:12:51.669Z,1016.41
2017-04-22T05:13:52.892Z,1016.46
2017-04-22T05:14:54.141Z,1016.44
2017-04-22T05:15:55.512Z,1016.45
2017-04-22T05:16:56.974Z,1016.52
2017-04-22T05:17:58.255Z,1016.45
2017-04-22T05:18:59.504Z,1016.53
2017-04-22T05:20:00.730Z,1016.56
2017-04-22T05:21:02.092Z,1016.59
2017-04-22T05:22:03.268Z,1016.59
2017-04-22T05:23:04.523Z,1016.65
2017-04-22T05:24:05.795Z,1016.66
2017-04-22T05:25:07.088Z,1016.69
2017-04-22T05:26:08.314Z,1016.65
2017-04-22T05:27:09.529Z,1016.66
2017-04-22T05:28:10.759Z,1016.66
2017-04-22T05:29:12.000Z,1016.69
2017-04-22T05:30:13.251Z,1016.68
2017-04-22T05:31:14.497Z,1016.62
2017-04-22T05:32:15.821Z,1016.65
2017-04-22T05:33:17.066Z,1016.55
2017-04-22T05:34:18.315Z,1016.59
2017-04-22T05:35:19.584Z,1016.65
2017-04-22T05:36:20.794Z,1016.62
2017-04-22T05:37:22.045Z,1016.66
2017-04-22T05:38:23.300Z,1016.62
2017-04-22T05:39:24.764Z,1016.72
2017-04-22T05:40:26.005Z,1016.71
2017-04-22T05:41:27.271Z,1016.73
2017-04-22T05:42:28.489Z,1016.58
2017-04-22T05:43:29.732Z,1016.63
2017-04-22T05:44:31.186Z,1016.67
2017-04-22T05:45:32.347Z,1016.63
2017-04-22T05:46:33.578Z,1016.62
2017-04-22T05:47:34.850Z,1016.64
2017-04-22T05:48:36.097Z,1016.62
2017-04-22T05:49:37.331Z,1016.65
2017-04-22T05:50:38.608Z,1016.69
2017-04-22T05:51:39.916Z,1016.71
2017-04-22T05:52:41.168Z,1016.71
2017-04-22T05:53:42.394Z,1016.71
2017-04-22T05:54:43.636Z,1016.83
2017-04-22T05:55:44.931Z,1016.8
2017-04-22T05:56:46.216Z,1016.7
2017-04-22T05:57:47.639Z,1016.77
2017-04-22T05:58:48.892Z,1016.8
2017-04-22T05:59:50.161Z,1016.77
2017-04-22T06:00:51.402Z,1016.78
2017-04-22T06:01:52.643Z,1016.93
2017-04-22T06:02:53.934Z,1016.89
2017-04-22T06:03:55.181Z,1016.87
2017-04-22T06:04:56.414Z,1016.88
2017-04-22T06:05:57.666Z,1016.92
2017-04-22T06:06:58.890Z,1016.9
2017-04-22T06:08:00.194Z,1016.94
2017-04-22T06:09:01.449Z,1016.93
2017-04-22T06:10:02.688Z,1016.88
2017-04-22T06:11:04.017Z,1016.88
2017-04-22T06:12:05.264Z,1016.92
2017-04-22T06:13:06.508Z,1016.94
2017-04-22T06:14:07.739Z,1016.92
2017-04-22T06:15:09.008Z,1016.89
2017-04-22T06:16:10.305Z,1016.84
2017-04-22T06:17:11.553Z,1016.79
2017-04-22T06:18:12.797Z,1016.83
2017-04-22T06:19:14.060Z,1016.79
2017-04-22T06:20:15.307Z,1016.98
2017-04-22T06:21:16.583Z,1017.08
2017-04-22T06:22:18.130Z,1017.06
2017-04-22T06:23:19.376Z,1017.09
2017-04-22T06:24:20.674Z,1017.13
2017-04-22T06:25:21.915Z,1017.15
2017-04-22T06:26:23.140Z,1017.11
2017-04-22T06:27:24.381Z,1017.17
2017-04-22T06:28:25.733Z,1017.21
2017-04-22T06:29:26.956Z,1017.17
2017-04-22T06:30:28.229Z,1017.23
2017-04-22T06:31:29.469Z,1017.21
2017-04-22T06:32:30.720Z,1017.25
2017-04-22T06:33:32.099Z,1017.28
2017-04-22T06:34:33.373Z,1017.29
2017-04-22T06:35:34.612Z,1017
2017-04-22T06:36:35.879Z,1016.96
2017-04-22T06:37:37.132Z,1017.24
2017-04-22T06:38:38.424Z,1017.13
2017-04-22T06:39:39.715Z,1016.99
2017-04-22T06:40:40.987Z,1016.97
2017-04-22T06:41:42.223Z,1017.08
2017-04-22T06:42:43.483Z,1017.19
2017-04-22T06:43:44.728Z,1016.91
2017-04-22T06:44:45.973Z,1016.88
2017-04-22T06:45:47.236Z,1016.87
2017-04-22T06:46:48.526Z,1016.94
2017-04-22T06:47:49.865Z,1017.01
2017-04-22T06:48:51.213Z,1017.52
2017-04-22T06:49:52.423Z,1017.04
2017-04-22T06:50:53.691Z,1017.04
2017-04-22T06:51:55.052Z,1017.12
2017-04-22T06:52:56.531Z,1017.24
2017-04-22T06:53:57.771Z,1016.99
2017-04-22T06:54:59.014Z,1016.99
2017-04-22T06:56:00.328Z,1017.62
2017-04-22T06:57:01.932Z,1017.12
2017-04-22T06:58:03.060Z,1017
2017-04-22T06:59:04.306Z,1017
2017-04-22T07:00:05.600Z,1017.6
2017-04-22T07:01:06.833Z,1018.14
2017-04-22T07:02:08.088Z,1017.53
2017-04-22T07:03:09.408Z,1018.39
2017-04-22T07:04:10.646Z,1017.01
2017-04-22T07:05:11.955Z,1016.98
2017-04-22T07:06:13.195Z,1017.23
2017-04-22T07:07:14.442Z,1018.35
2017-04-22T07:08:15.689Z,1016.92
2017-04-22T07:09:16.950Z,1018.34
2017-04-22T07:10:18.251Z,1018.4
2017-04-22T07:11:19.477Z,1018.42
2017-04-22T07:12:20.727Z,1017.27
2017-04-22T07:13:21.964Z,1018.25
2017-04-22T07:14:23.206Z,1016.99
2017-04-22T07:15:24.463Z,1017.14
2017-04-22T07:16:25.755Z,1017.91
2017-04-22T07:17:27.042Z,1017.03
2017-04-22T07:18:28.280Z,1018.39
2017-04-22T07:19:29.543Z,1016.95
2017-04-22T07:20:30.794Z,1017.02
2017-04-22T07:21:32.062Z,1017.17
2017-04-22T07:22:33.370Z,1017.51
2017-04-22T07:23:34.593Z,1018.62
2017-04-22T07:24:35.946Z,1017.26
2017-04-22T07:25:37.277Z,1016.97
2017-04-22T07:26:38.531Z,1017.01
2017-04-22T07:27:39.803Z,1016.96
2017-04-22T07:28:41.046Z,1017.18
2017-04-22T07:29:42.291Z,1017.66
2017-04-22T07:30:43.547Z,1016.98
2017-04-22T07:31:44.792Z,1017
2017-04-22T07:32:46.231Z,1017
2017-04-22T07:33:47.839Z,1017.14
2017-04-22T07:34:49.102Z,1018.12
2017-04-22T07:35:50.351Z,1018.24
2017-04-22T07:36:51.588Z,1018.05
2017-04-22T07:37:52.827Z,1018.19
2017-04-22T07:38:54.208Z,1018.22
2017-04-22T07:39:55.767Z,1017.03
2017-04-22T07:40:56.984Z,1017.68
2017-04-22T07:41:58.234Z,1017.95
2017-04-22T07:42:59.482Z,1017.26
2017-04-22T07:44:00.733Z,1016.81
2017-04-22T07:45:01.970Z,1016.86
2017-04-22T07:46:03.224Z,1016.8
2017-04-22T07:47:04.496Z,1016.85
2017-04-22T07:48:05.739Z,1016.87
2017-04-22T07:49:06.987Z,1016.79
2017-04-22T07:50:08.334Z,1016.84
2017-04-22T07:51:09.636Z,1016.88
2017-04-22T07:52:10.939Z,1016.99
2017-04-22T07:53:12.184Z,1017.01
2017-04-22T07:54:13.425Z,1017.08
2017-04-22T07:55:14.663Z,1017.14
2017-04-22T07:56:15.915Z,1017.23
2017-04-22T07:57:17.177Z,1017.52
2017-04-22T07:58:18.408Z,1017.13
2017-04-22T07:59:19.644Z,1017.41
2017-04-22T08:00:20.908Z,1017.09
2017-04-22T08:01:22.164Z,1017.07
2017-04-22T08:02:23.397Z,1017.43
2017-04-22T08:03:24.635Z,1017.42
2017-04-22T08:04:25.867Z,1017.36
2017-04-22T08:05:27.177Z,1017.35
2017-04-22T08:06:28.437Z,1017.35
2017-04-22T08:07:29.673Z,1017.3
2017-04-22T08:08:30.925Z,1017.35
2017-04-22T08:09:32.183Z,1017.31
2017-04-22T08:10:33.468Z,1017.38
2017-04-22T08:11:34.731Z,1017.36
2017-04-22T08:12:35.975Z,1017.37
2017-04-22T08:13:37.220Z,1017.45
2017-04-22T08:14:38.496Z,1017.41
2017-04-22T08:15:39.734Z,1017.49
2017-04-22T08:16:40.984Z,1017.41
2017-04-22T08:17:42.263Z,1017.46
2017-04-22T08:18:43.498Z,1017.42
2017-04-22T08:19:44.749Z,1017.09
2017-04-22T08:20:46.022Z,1017.53
2017-04-22T08:21:47.293Z,1017.51
2017-04-22T08:22:48.772Z,1017.2
2017-04-22T08:23:50.118Z,1017.48
2017-04-22T08:24:51.370Z,1017.64
2017-04-22T08:25:52.619Z,1017.77
2017-04-22T08:26:53.876Z,1017.68
2017-04-22T08:27:55.137Z,1017.17
2017-04-22T08:28:56.456Z,1017.42
2017-04-22T08:29:57.729Z,1017.18
2017-04-22T08:30:58.976Z,1017.88
2017-04-22T08:32:00.221Z,1017.79
2017-04-22T08:33:01.467Z,1017.47
2017-04-22T08:34:02.715Z,1017.29
2017-04-22T08:35:03.999Z,1017.23
2017-04-22T08:36:05.235Z,1017.11
2017-04-22T08:37:06.498Z,1017.01
2017-04-22T08:38:07.751Z,1016.99
2017-04-22T08:39:08.996Z,1017.06
2017-04-22T08:40:10.276Z,1017.16
2017-04-22T08:41:11.515Z,1017.24
2017-04-22T08:42:12.844Z,1017.42
2017-04-22T08:43:14.082Z,1017.41
2017-04-22T08:44:15.343Z,1018.49
2017-04-22T08:45:16.905Z,1018.37
2017-04-22T08:46:18.255Z,1018.33
2017-04-22T08:47:19.771Z,1018.51
2017-04-22T08:48:21.119Z,1018.63
2017-04-22T08:49:22.447Z,1018.61
2017-04-22T08:50:23.681Z,1018.43
2017-04-22T08:51:24.925Z,1018.7
2017-04-22T08:52:26.222Z,1017.09
2017-04-22T08:53:27.493Z,1018.94
2017-04-22T08:54:28.745Z,1019.03
2017-04-22T08:55:29.991Z,1018.96
2017-04-22T08:56:31.237Z,1019.3
2017-04-22T08:57:32.612Z,1017.18
2017-04-22T08:58:33.934Z,1017.11
2017-04-22T08:59:35.232Z,1019.17
2017-04-22T09:00:36.502Z,1019.12
2017-04-22T09:01:37.749Z,1017.1
2017-04-22T09:02:39.029Z,1017.16
2017-04-22T09:03:40.256Z,1016.83
2017-04-22T09:04:41.509Z,1019.27
2017-04-22T09:05:42.755Z,1017.15
2017-04-22T09:06:44.014Z,1016.84
2017-04-22T09:07:45.288Z,1016.89
2017-04-22T09:08:46.532Z,1018.48
2017-04-22T09:09:47.881Z,1019.02
2017-04-22T09:10:49.198Z,1019
2017-04-22T09:11:50.442Z,1018.29
2017-04-22T09:12:51.688Z,1018.3
2017-04-22T09:13:52.945Z,1016.82
2017-04-22T09:14:54.198Z,1017.18
2017-04-22T09:15:55.555Z,1016.93
2017-04-22T09:16:56.896Z,1016.88
2017-04-22T09:17:58.163Z,1018.6
2017-04-22T09:18:59.393Z,1018.55
2017-04-22T09:20:00.678Z,1018.58
2017-04-22T09:21:01.957Z,1018.35
2017-04-22T09:22:03.215Z,1018.42
2017-04-22T09:23:04.470Z,1018.49
2017-04-22T09:24:05.748Z,1016.94
2017-04-22T09:25:06.992Z,1016.93
2017-04-22T09:26:08.247Z,1016.94
2017-04-22T09:27:09.628Z,1016.72
2017-04-22T09:28:10.874Z,1017.86
2017-04-22T09:29:12.119Z,1018.37
2017-04-22T09:30:13.450Z,1016.84
2017-04-22T09:31:14.694Z,1016.8
2017-04-22T09:32:15.964Z,1016.79
2017-04-22T09:33:17.227Z,1016.9
2017-04-22T09:34:18.460Z,1016.78
2017-04-22T09:35:19.727Z,1016.78
2017-04-22T09:36:20.958Z,1017.76
2017-04-22T09:37:22.231Z,1017.84
2017-04-22T09:38:23.466Z,1016.83
2017-04-22T09:39:24.722Z,1016.68
2017-04-22T09:40:26.076Z,1016.75
2017-04-22T09:41:27.430Z,1016.81
2017-04-22T09:42:28.674Z,1017.59
2017-04-22T09:43:29.934Z,1017.08
2017-04-22T09:44:31.503Z,1017.24
2017-04-22T09:45:32.696Z,1016.89
2017-04-22T09:46:34.052Z,1016.88
2017-04-22T09:47:35.475Z,1016.94
2017-04-22T09:48:36.710Z,1016.89
2017-04-22T09:49:37.961Z,1016.89
2017-04-22T09:50:39.279Z,1016.88
2017-04-22T09:51:40.543Z,1017.63
2017-04-22T09:52:41.778Z,1017.35
2017-04-22T09:53:43.024Z,1016.96
2017-04-22T09:54:44.458Z,1016.81
2017-04-22T09:55:45.728Z,1016.88
2017-04-22T09:56:46.943Z,1016.84
2017-04-22T09:57:48.196Z,1016.8
2017-04-22T09:58:49.434Z,1016.82
2017-04-22T09:59:50.699Z,1016.84
2017-04-22T10:00:51.918Z,1016.9
2017-04-22T10:01:53.160Z,1017.03
2017-04-22T10:02:54.426Z,1017.04
2017-04-22T10:03:55.710Z,1016.95
2017-04-22T10:04:57.020Z,1017.05
2017-04-22T10:05:58.265Z,1017.12
2017-04-22T10:06:59.503Z,1017.2
2017-04-22T10:08:00.753Z,1017.11
2017-04-22T10:09:02.053Z,1017.04
2017-04-22T10:10:03.310Z,1016.96
2017-04-22T10:11:04.556Z,1016.98
2017-04-22T10:12:05.798Z,1017.03
2017-04-22T10:13:07.058Z,1017.15
2017-04-22T10:14:08.385Z,1017.12
2017-04-22T10:15:09.686Z,1017.2
2017-04-22T10:16:10.954Z,1017.04
2017-04-22T10:17:12.194Z,1017.03
2017-04-22T10:18:13.518Z,1017.02
2017-04-22T10:19:14.753Z,1016.99
2017-04-22T10:20:16.002Z,1017.01
2017-04-22T10:21:17.223Z,1017.03
2017-04-22T10:22:18.466Z,1017.11
2017-04-22T10:23:19.734Z,1017.17
2017-04-22T10:24:20.976Z,1017.15
2017-04-22T10:25:22.249Z,1017.19
2017-04-22T10:26:23.470Z,1017.25
2017-04-22T10:27:24.795Z,1017.33
2017-04-22T10:28:26.037Z,1017.34
2017-04-22T10:29:27.307Z,1017.3
2017-04-22T10:30:28.527Z,1017.16
2017-04-22T10:31:29.765Z,1017.36
2017-04-22T10:32:31.020Z,1017.59
2017-04-22T10:33:32.267Z,1017.35
2017-04-22T10:34:33.531Z,1017.38
2017-04-22T10:35:34.771Z,1017.26
2017-04-22T10:36:36.051Z,1017.25
2017-04-22T10:37:37.371Z,1017.26
2017-04-22T10:38:38.611Z,1017.21
2017-04-22T10:39:39.877Z,1017.22
2017-04-22T10:40:41.118Z,1017.29
2017-04-22T10:41:42.393Z,1017.37
2017-04-22T10:42:43.619Z,1017.36
2017-04-22T10:43:44.866Z,1017.37
2017-04-22T10:44:46.108Z,1017.32
2017-04-22T10:45:47.352Z,1017.38
2017-04-22T10:46:48.675Z,1017.23
2017-04-22T10:47:49.984Z,1017.27
2017-04-22T10:48:51.237Z,1017.19
2017-04-22T10:49:52.488Z,1017.22
2017-04-22T10:50:53.757Z,1017.18
2017-04-22T10:51:54.978Z,1017.2
2017-04-22T10:52:56.223Z,1017.21
2017-04-22T10:53:57.552Z,1017.12
2017-04-22T10:54:58.794Z,1017.14
2017-04-22T10:56:00.078Z,1017.25
2017-04-22T10:57:01.334Z,1017.07
2017-04-22T10:58:02.792Z,1017.14
2017-04-22T10:59:04.084Z,1017.1
2017-04-22T11:00:05.364Z,1017.17
2017-04-22T11:01:06.587Z,1017.22
2017-04-22T11:02:07.844Z,1017.17
2017-04-22T11:03:09.088Z,1017.08
2017-04-22T11:04:10.387Z,1017.21
2017-04-22T11:05:11.720Z,1017.16
2017-04-22T11:06:12.858Z,1017.12
2017-04-22T11:07:14.116Z,1017.07
2017-04-22T11:08:15.366Z,1016.99
2017-04-22T11:09:16.609Z,1017.01
2017-04-22T11:10:17.851Z,1016.98
2017-04-22T11:11:19.098Z,1017.02
2017-04-22T11:12:20.377Z,1017.04
2017-04-22T11:13:21.817Z,1017
2017-04-22T11:14:23.039Z,1016.98
2017-04-22T11:15:24.277Z,1016.89
2017-04-22T11:16:25.521Z,1016.92
2017-04-22T11:17:26.820Z,1016.91
2017-04-22T11:18:28.075Z,1016.92
2017-04-22T11:19:29.342Z,1016.92
2017-04-22T11:20:30.563Z,1016.92
2017-04-22T11:21:31.940Z,1016.9
2017-04-22T11:22:33.397Z,1016.9
2017-04-22T11:23:34.633Z,1016.91
2017-04-22T11:24:35.907Z,1016.89
2017-04-22T11:25:37.165Z,1016.97
2017-04-22T11:26:38.400Z,1016.98
2017-04-22T11:27:39.630Z,1017
2017-04-22T11:28:40.891Z,1016.92
2017-04-22T11:29:42.128Z,1016.92
2017-04-22T11:30:43.425Z,1016.93
2017-04-22T11:31:44.669Z,1016.87
2017-04-22T11:32:45.929Z,1016.87
2017-04-22T11:33:47.176Z,1016.84
2017-04-22T11:34:48.433Z,1016.82
2017-04-22T11:35:49.706Z,1016.85
2017-04-22T11:36:50.926Z,1016.82
2017-04-22T11:37:52.295Z,1016.75
2017-04-22T11:38:53.561Z,1016.71
2017-04-22T11:39:54.810Z,1016.75
2017-04-22T11:40:56.051Z,1016.75
2017-04-22T11:41:57.297Z,1016.68
2017-04-22T11:42:58.572Z,1016.65
2017-04-22T11:43:59.978Z,1016.65
2017-04-22T11:45:01.210Z,1016.62
2017-04-22T11:46:02.441Z,1016.64
2017-04-22T11:47:03.690Z,1016.67
2017-04-22T11:48:04.929Z,1016.79
2017-04-22T11:49:06.300Z,1016.68
2017-04-22T11:50:07.548Z,1016.64
2017-04-22T11:51:08.770Z,1016.64
2017-04-22T11:52:10.019Z,1016.61
2017-04-22T11:53:11.261Z,1016.48
2017-04-22T11:54:12.507Z,1016.55
2017-04-22T11:55:13.752Z,1016.54
2017-04-22T11:56:15.084Z,1016.64
2017-04-22T11:57:16.252Z,1016.57
2017-04-22T11:58:17.513Z,1016.58
2017-04-22T11:59:18.781Z,1016.53
2017-04-22T12:00:20.031Z,1016.5
2017-04-22T12:01:21.281Z,1016.54
2017-04-22T12:02:22.501Z,1016.5
2017-04-22T12:03:23.770Z,1016.53
2017-04-22T12:04:25.007Z,1016.48
2017-04-22T12:05:26.252Z,1016.42
2017-04-22T12:06:27.490Z,1016.36
2017-04-22T12:07:28.742Z,1016.36
2017-04-22T12:08:30.106Z,1016.39
2017-04-22T12:09:31.326Z,1016.37
2017-04-22T12:10:32.573Z,1016.38
2017-04-22T12:11:33.864Z,1016.41
2017-04-22T12:12:35.080Z,1016.39
2017-04-22T12:13:36.339Z,1016.32
2017-04-22T12:14:37.583Z,1016.37
2017-04-22T12:15:38.862Z,1016.45
2017-04-22T12:16:40.106Z,1016.39
2017-04-22T12:17:41.330Z,1016.5
2017-04-22T12:18:42.665Z,1016.51
2017-04-22T12:19:43.908Z,1016.52
2017-04-22T12:20:45.184Z,1016.53
2017-04-22T12:21:46.461Z,1016.47
2017-04-22T12:22:47.696Z,1016.48
2017-04-22T12:23:48.942Z,1016.53